Time;durP1;ratioP1;P1;durP2;ratioP2;P2;SDS_P1;SDS_P2;PMS_P1;PMS_P2;Temp;Humidity;BMP_temperature;BMP_pressure;BME280_temperature;BME280_humidity;BME280_pressure;Samples;Min_cycle;Max_cycle;Signal;HPM_P1;HPM_P2
2022/09/27 00:00:41;;;;;;;2.90;1.45;;;15.50;57.70;;;;;;5046417;28;20037;-75
2022/09/27 00:03:11;;;;;;;3.10;1.00;;;15.50;57.70;;;;;;5039611;28;20029;-77
2022/09/27 00:05:39;;;;;;;4.85;1.48;;;15.50;57.70;;;;;;5046993;28;20051;-75
2022/09/27 00:08:05;;;;;;;3.03;1.30;;;15.50;57.70;;;;;;5047960;28;20029;-75
2022/09/27 00:10:31;;;;;;;3.58;1.00;;;15.50;57.60;;;;;;5049788;28;20079;-76
2022/09/27 00:12:59;;;;;;;2.60;0.80;;;15.50;57.60;;;;;;5042537;28;20033;-76
2022/09/27 00:15:25;;;;;;;1.25;0.60;;;15.50;57.60;;;;;;5047416;28;20038;-75
2022/09/27 00:17:51;;;;;;;3.55;0.82;;;15.50;57.60;;;;;;5039631;28;20038;-76
2022/09/27 00:20:19;;;;;;;2.60;1.05;;;15.40;57.30;;;;;;5045192;28;20040;-76
2022/09/27 00:22:47;;;;;;;4.10;1.20;;;15.40;57.40;;;;;;5046887;28;20515;-76
2022/09/27 00:25:17;;;;;;;3.35;1.52;;;15.40;57.30;;;;;;5048643;28;20099;-76
2022/09/27 00:27:43;;;;;;;3.42;0.90;;;15.40;57.30;;;;;;5040770;28;20025;-75
2022/09/27 00:30:09;;;;;;;2.85;0.68;;;15.40;57.30;;;;;;5047500;28;20033;-75
2022/09/27 00:32:35;;;;;;;2.78;1.10;;;15.40;57.30;;;;;;5047447;28;20029;-76
2022/09/27 00:35:01;;;;;;;4.75;1.25;;;15.40;57.20;;;;;;5047244;28;20029;-76
2022/09/27 00:37:28;;;;;;;2.55;0.98;;;15.30;57.00;;;;;;5040349;28;20056;-77
2022/09/27 00:39:54;;;;;;;2.65;1.23;;;15.30;57.00;;;;;;5047132;28;20052;-76
2022/09/27 00:42:21;;;;;;;4.93;1.48;;;15.30;57.00;;;;;;5032919;28;20367;-77
2022/09/27 00:45:02;;;;;;;1.98;0.80;;;15.30;57.00;;;;;;5043569;28;20619;-75
2022/09/27 00:47:51;;;;;;;2.13;0.70;;;15.30;57.00;;;;;;5023539;28;20043;-76
2022/09/27 00:50:25;;;;;;;3.47;1.15;;;15.30;57.00;;;;;;5041336;28;20096;-76
2022/09/27 00:53:00;;;;;;;2.47;0.90;;;15.20;56.80;;;;;;5045889;28;20046;-75
2022/09/27 00:55:35;;;;;;;4.45;0.90;;;15.20;56.90;;;;;;5046053;28;20106;-74
2022/09/27 00:58:03;;;;;;;4.22;1.05;;;15.20;56.80;;;;;;5044665;28;20039;-75
2022/09/27 01:00:30;;;;;;;2.80;0.98;;;15.20;56.80;;;;;;5050517;28;20288;-76
2022/09/27 01:02:57;;;;;;;4.53;1.30;;;15.10;56.60;;;;;;5049653;28;21024;-76
2022/09/27 01:05:27;;;;;;;4.30;0.90;;;15.20;56.80;;;;;;5057048;28;20116;-76
2022/09/27 01:07:55;;;;;;;3.13;1.27;;;15.10;56.60;;;;;;5049832;28;20378;-76
2022/09/27 01:10:24;;;;;;;3.92;0.80;;;15.10;56.60;;;;;;5055627;28;20089;-75
2022/09/27 01:13:19;;;;;;;3.08;1.33;;;15.10;56.60;;;;;;5049724;28;20020;-76
2022/09/27 01:15:45;;;;;;;4.38;1.13;;;15.10;56.80;;;;;;5050781;28;20071;-76
2022/09/27 01:18:44;;;;;;;3.28;1.17;;;15.10;56.70;;;;;;5037323;28;20455;-76
2022/09/27 01:21:23;;;;;;;4.15;0.93;;;15.10;56.80;;;;;;5051026;28;20407;-76
2022/09/27 01:24:26;;;;;;;3.38;0.85;;;15.00;56.50;;;;;;5029545;28;20029;-76
2022/09/27 01:27:14;;;;;;;3.03;0.88;;;15.00;56.60;;;;;;5047258;28;20028;-76
2022/09/27 01:30:15;;;;;;;4.00;1.25;;;15.00;56.60;;;;;;5053427;28;20032;-75
2022/09/27 01:33:24;;;;;;;5.65;1.33;;;15.00;56.70;;;;;;5045385;28;20029;-76
2022/09/27 01:36:12;;;;;;;5.50;2.08;;;15.00;56.60;;;;;;5028630;28;20049;-76
2022/09/27 01:39:07;;;;;;;4.70;1.10;;;14.90;56.50;;;;;;5049245;28;20051;-75
2022/09/27 01:42:24;;;;;;;5.68;1.17;;;14.90;56.50;;;;;;5041844;28;20536;-77
2022/09/27 01:45:11;;;;;;;4.15;1.38;;;14.90;56.40;;;;;;5032106;28;20543;-76
2022/09/27 01:47:57;;;;;;;5.57;1.55;;;14.90;56.40;;;;;;5034579;28;20549;-75
2022/09/27 01:50:49;;;;;;;4.78;1.23;;;14.80;56.20;;;;;;5054263;28;20492;-76
2022/09/27 01:53:32;;;;;;;3.63;1.27;;;14.90;56.40;;;;;;5049351;28;20134;-78
2022/09/27 01:56:25;;;;;;;5.82;1.50;;;14.90;56.40;;;;;;5030808;28;20025;-75
2022/09/27 01:59:06;;;;;;;3.85;1.30;;;14.90;56.90;;;;;;5049453;28;20045;-77
2022/09/27 02:01:36;;;;;;;4.88;1.40;;;14.90;56.30;;;;;;5056303;28;20029;-75
2022/09/27 02:04:08;;;;;;;5.03;1.30;;;14.80;56.10;;;;;;5019333;28;20573;-76
2022/09/27 02:07:01;;;;;;;6.07;1.67;;;14.90;56.30;;;;;;5041327;28;20045;-77
2022/09/27 02:09:33;;;;;;;4.15;0.80;;;14.80;56.00;;;;;;5053081;28;20148;-76
2022/09/27 02:12:25;;;;;;;5.18;2.03;;;14.80;56.00;;;;;;5051507;28;20554;-76
2022/09/27 02:15:01;;;;;;;5.03;1.10;;;14.80;56.00;;;;;;5048360;28;20517;-76
2022/09/27 02:17:57;;;;;;;5.07;1.52;;;14.80;56.00;;;;;;5050407;28;20032;-76
2022/09/27 02:20:35;;;;;;;6.82;2.33;;;14.80;56.10;;;;;;5055206;28;20093;-77
2022/09/27 02:23:21;;;;;;;4.13;1.10;;;14.80;56.10;;;;;;5056623;28;20028;-75
2022/09/27 02:25:54;;;;;;;6.10;1.65;;;14.80;56.10;;;;;;5029287;28;20041;-76
2022/09/27 02:28:50;;;;;;;5.90;1.55;;;14.70;55.80;;;;;;5054792;28;20168;-78
2022/09/27 02:31:24;;;;;;;;;;;14.80;56.10;;;;;;5052101;28;20029;-76
2022/09/27 02:34:03;;;;;;;9.63;2.00;;;14.70;55.80;;;;;;5049146;28;20000;-76
2022/09/27 02:36:30;;;;;;;6.35;1.50;;;14.70;55.80;;;;;;5033809;28;20248;-77
2022/09/27 02:38:57;;;;;;;4.82;1.10;;;14.70;55.80;;;;;;5051202;28;20041;-76
2022/09/27 02:41:26;;;;;;;5.32;1.30;;;14.70;55.90;;;;;;5054812;28;20570;-76
2022/09/27 02:43:57;;;;;;;6.18;1.63;;;14.70;55.90;;;;;;5053686;28;20593;-77
2022/09/27 02:46:30;;;;;;;6.55;2.38;;;14.70;56.00;;;;;;5038390;28;20489;-78
2022/09/27 02:49:09;;;;;;;5.83;1.60;;;14.70;56.10;;;;;;5031483;28;20025;-77
2022/09/27 02:52:01;;;;;;;8.35;2.15;;;14.70;56.10;;;;;;5048371;28;20041;-75
2022/09/27 02:54:43;;;;;;;4.72;1.23;;;14.70;56.20;;;;;;5063380;28;20068;-76
2022/09/27 02:58:00;;;;;;;6.95;1.33;;;14.70;56.30;;;;;;5052451;28;20063;-75
2022/09/27 03:01:11;;;;;;;6.88;1.52;;;14.70;56.30;;;;;;5041912;28;20090;-77
2022/09/27 03:04:13;;;;;;;6.68;1.45;;;14.60;56.20;;;;;;5046870;28;20142;-76
2022/09/27 03:06:42;;;;;;;4.35;1.98;;;14.60;56.10;;;;;;5043924;28;20029;-76
2022/09/27 03:09:23;;;;;;;8.25;1.67;;;14.70;56.30;;;;;;5068836;28;20469;-76
2022/09/27 03:11:50;;;;;;;5.93;2.08;;;14.60;56.30;;;;;;5053793;28;20037;-77
2022/09/27 03:14:16;;;;;;;7.22;1.77;;;14.60;56.30;;;;;;5051180;28;20496;-77
2022/09/27 03:16:56;;;;;;;9.43;2.30;;;14.60;56.40;;;;;;5039237;28;20558;-76
2022/09/27 03:19:55;;;;;;;9.88;2.30;;;14.60;56.40;;;;;;5039046;28;20017;-75
2022/09/27 03:22:39;;;;;;;10.00;2.58;;;14.60;56.40;;;;;;5051990;28;20078;-76
2022/09/27 03:25:07;;;;;;;5.90;1.27;;;14.60;56.50;;;;;;5051789;28;20597;-75
2022/09/27 03:27:39;;;;;;;6.85;1.58;;;14.60;56.50;;;;;;5043509;28;20044;-76
2022/09/27 03:30:06;;;;;;;5.78;1.33;;;14.60;56.60;;;;;;5032605;28;20305;-76
2022/09/27 03:32:33;;;;;;;3.75;1.20;;;14.60;56.60;;;;;;5049871;28;20512;-75
2022/09/27 03:35:28;;;;;;;8.75;2.67;;;14.60;56.60;;;;;;5053359;28;20037;-74
2022/09/27 03:37:53;;;;;;;7.50;1.83;;;14.60;56.60;;;;;;5048250;28;20673;-76
2022/09/27 03:40:19;;;;;;;5.22;1.30;;;14.60;56.60;;;;;;5051445;28;20047;-75
2022/09/27 03:42:45;;;;;;;9.25;2.25;;;14.60;56.70;;;;;;5022339;28;20552;-76
2022/09/27 03:45:12;;;;;;;6.70;1.65;;;14.60;56.70;;;;;;5040464;28;20048;-76
2022/09/27 03:47:41;;;;;;;7.20;1.77;;;14.60;56.70;;;;;;5049981;28;20044;-76
2022/09/27 03:50:09;;;;;;;5.82;1.85;;;14.60;56.70;;;;;;5047989;28;20029;-75
2022/09/27 03:52:36;;;;;;;7.25;1.50;;;14.60;56.70;;;;;;5049067;28;20451;-76
2022/09/27 03:55:03;;;;;;;5.95;1.88;;;14.60;56.80;;;;;;5051269;28;20047;-75
2022/09/27 03:57:30;;;;;;;8.77;1.90;;;14.60;56.80;;;;;;5052581;28;20024;-76
2022/09/27 03:59:58;;;;;;;7.32;1.80;;;14.60;56.70;;;;;;5047641;28;20045;-75
2022/09/27 04:02:43;;;;;;;4.82;1.55;;;14.60;56.70;;;;;;5058531;28;20086;-76
2022/09/27 04:05:26;;;;;;;5.80;2.03;;;14.60;56.80;;;;;;5053122;28;20062;-76
2022/09/27 04:07:59;;;;;;;8.23;2.90;;;14.60;56.80;;;;;;5050366;28;20384;-76
2022/09/27 04:10:25;;;;;;;5.65;2.17;;;14.60;56.80;;;;;;5045976;28;20447;-75
2022/09/27 04:12:51;;;;;;;6.65;1.60;;;14.60;56.80;;;;;;5051744;28;20029;-76
2022/09/27 04:15:20;;;;;;;4.40;1.60;;;14.60;56.80;;;;;;5049832;28;20041;-76
2022/09/27 04:17:49;;;;;;;7.15;2.60;;;14.60;56.80;;;;;;5044827;28;20628;-77
2022/09/27 04:20:44;;;;;;;5.65;1.98;;;14.60;56.80;;;;;;5049724;28;20210;-75
2022/09/27 04:23:13;;;;;;;9.02;1.67;;;14.60;56.80;;;;;;5015161;28;20422;-75
2022/09/27 04:25:46;;;;;;;8.07;2.15;;;14.60;56.80;;;;;;5049031;28;20057;-76
2022/09/27 04:28:32;;;;;;;6.28;1.92;;;14.60;56.80;;;;;;5049287;28;20253;-75
2022/09/27 04:30:58;;;;;;;8.52;2.35;;;14.60;56.70;;;;;;5035409;28;20037;-78
2022/09/27 04:33:47;;;;;;;8.35;2.20;;;14.60;56.80;;;;;;5041068;28;20036;-77
2022/09/27 04:36:26;;;;;;;6.35;1.70;;;14.60;56.80;;;;;;5023983;28;20114;-75
2022/09/27 04:39:10;;;;;;;9.23;2.10;;;14.60;56.80;;;;;;5038304;28;20037;-76
2022/09/27 04:41:39;;;;;;;6.72;2.72;;;14.70;56.90;;;;;;5048015;28;20039;-77
2022/09/27 04:44:07;;;;;;;8.73;1.95;;;14.60;56.80;;;;;;5050854;28;20091;-75
2022/09/27 04:46:33;;;;;;;8.57;3.00;;;14.70;57.00;;;;;;5048474;28;20037;-77
2022/09/27 04:49:00;;;;;;;6.93;1.75;;;14.70;57.00;;;;;;5040687;28;20044;-76
2022/09/27 04:51:27;;;;;;;7.15;1.73;;;14.70;57.00;;;;;;5024530;28;20325;-76
2022/09/27 04:53:56;;;;;;;6.38;1.85;;;14.70;57.60;;;;;;5045945;28;20503;-76
2022/09/27 04:56:25;;;;;;;8.85;1.98;;;14.80;57.20;;;;;;5027788;28;20173;-76
2022/09/27 04:58:52;;;;;;;7.22;1.80;;;14.70;57.00;;;;;;5034139;28;20029;-76
2022/09/27 05:01:18;;;;;;;8.77;2.65;;;14.80;57.20;;;;;;5050561;28;20032;-74
2022/09/27 05:03:54;;;;;;;6.80;1.60;;;14.80;57.30;;;;;;5047242;28;20031;-76
2022/09/27 05:06:20;;;;;;;5.00;1.30;;;14.80;57.20;;;;;;5046323;28;20051;-75
2022/09/27 05:08:47;;;;;;;5.82;1.60;;;14.80;57.20;;;;;;5026405;28;20033;-75
2022/09/27 05:11:25;;;;;;;7.38;2.10;;;14.80;57.20;;;;;;5045745;28;20055;-77
2022/09/27 05:14:09;;;;;;;4.57;1.63;;;14.80;57.20;;;;;;5028159;28;20631;-75
2022/09/27 05:16:47;;;;;;;8.60;1.92;;;14.70;57.00;;;;;;5048473;28;20425;-75
2022/09/27 05:19:33;;;;;;;7.72;1.75;;;14.80;57.20;;;;;;5043805;28;20400;-77
2022/09/27 05:22:09;;;;;;;6.60;1.58;;;14.70;56.90;;;;;;5033327;28;20025;-76
2022/09/27 05:24:37;;;;;;;6.88;2.72;;;14.70;56.80;;;;;;5048835;28;20056;-76
2022/09/27 05:27:06;;;;;;;6.95;1.75;;;14.70;56.80;;;;;;5043154;28;20025;-78
2022/09/27 05:29:35;;;;;;;9.88;1.90;;;14.70;56.80;;;;;;5048531;28;20095;-77
2022/09/27 05:32:16;;;;;;;7.72;1.67;;;14.70;56.80;;;;;;5033343;28;20044;-78
2022/09/27 05:34:44;;;;;;;10.57;2.92;;;14.70;56.80;;;;;;5028543;28;20501;-78
2022/09/27 05:37:10;;;;;;;7.43;2.30;;;14.70;56.80;;;;;;5046220;28;20024;-78
2022/09/27 05:39:38;;;;;;;8.77;2.22;;;14.70;56.80;;;;;;5024989;28;20098;-76
2022/09/27 05:42:07;;;;;;;7.90;1.63;;;14.70;56.80;;;;;;5032262;28;20041;-76
2022/09/27 05:44:34;;;;;;;9.93;2.28;;;14.70;56.80;;;;;;5051934;28;20033;-76
2022/09/27 05:47:03;;;;;;;13.93;3.55;;;14.70;56.80;;;;;;5051200;28;20025;-78
2022/09/27 05:49:30;;;;;;;7.13;1.85;;;14.70;56.80;;;;;;5047137;28;20084;-77
2022/09/27 05:51:57;;;;;;;6.25;2.15;;;14.70;56.80;;;;;;5064589;28;20036;-79
2022/09/27 05:54:30;;;;;;;7.93;1.98;;;14.70;56.80;;;;;;5047597;28;20098;-80
2022/09/27 05:56:59;;;;;;;8.18;2.22;;;14.70;56.90;;;;;;5061364;28;20482;-78
2022/09/27 05:59:46;;;;;;;9.10;2.22;;;14.70;56.90;;;;;;5060634;28;20037;-78
2022/09/27 06:02:31;;;;;;;11.95;2.30;;;14.70;57.00;;;;;;5061068;28;20361;-80
2022/09/27 06:05:15;;;;;;;7.78;2.17;;;14.70;57.10;;;;;;5049973;28;20047;-75
2022/09/27 06:08:06;;;;;;;10.13;2.53;;;14.70;57.10;;;;;;5038001;28;20061;-76
2022/09/27 06:10:39;;;;;;;9.27;2.47;;;14.70;57.10;;;;;;5049628;28;20033;-77
2022/09/27 06:13:11;;;;;;;11.73;2.42;;;14.70;57.20;;;;;;5030067;28;20671;-77
2022/09/27 06:15:42;;;;;;;11.88;3.05;;;14.70;57.20;;;;;;5048018;28;20021;-78
2022/09/27 06:18:12;;;;;;;11.50;3.33;;;14.70;57.30;;;;;;5043603;28;20108;-78
2022/09/27 06:20:41;;;;;;;11.32;3.20;;;14.70;57.30;;;;;;5028598;28;20026;-78
2022/09/27 06:23:18;;;;;;;15.40;3.20;;;14.70;57.40;;;;;;5045194;28;20033;-78
2022/09/27 06:25:47;;;;;;;12.68;2.50;;;14.70;57.50;;;;;;5044341;28;20064;-78
2022/09/27 06:28:46;;;;;;;11.77;3.20;;;14.70;57.50;;;;;;5040133;28;20033;-77
2022/09/27 06:31:14;;;;;;;13.00;3.03;;;14.60;57.40;;;;;;5050659;28;20029;-79
2022/09/27 06:33:47;;;;;;;10.55;4.15;;;14.60;57.50;;;;;;5029891;28;20045;-77
2022/09/27 06:36:15;;;;;;;15.50;3.00;;;14.60;57.50;;;;;;5029647;28;20393;-77
2022/09/27 06:38:41;;;;;;;8.70;2.83;;;14.70;57.70;;;;;;5050624;28;20045;-77
2022/09/27 06:41:30;;;;;;;10.65;3.22;;;14.70;57.70;;;;;;5044945;28;20044;-79
2022/09/27 06:44:12;;;;;;;12.10;2.65;;;14.70;57.70;;;;;;5046907;28;20041;-77
2022/09/27 06:46:57;;;;;;;10.50;2.53;;;14.70;57.70;;;;;;5048890;28;20028;-82
2022/09/27 06:49:44;;;;;;;10.02;2.42;;;14.80;57.90;;;;;;5047501;28;20033;-81
2022/09/27 06:52:12;;;;;;;14.30;3.17;;;14.80;57.90;;;;;;5041886;28;20464;-82
2022/09/27 06:54:38;;;;;;;13.45;3.83;;;14.80;57.90;;;;;;5050557;28;20132;-82
2022/09/27 06:57:04;;;;;;;9.85;2.40;;;14.80;57.90;;;;;;5062218;28;20040;-81
2022/09/27 07:02:49;;;;;;;10.73;4.00;;;14.90;58.10;;;;;;5063782;28;20048;-83
2022/09/27 07:05:55;;;;;;;11.38;3.67;;;15.00;58.10;;;;;;5015555;28;20445;-82
2022/09/27 07:08:39;;;;;;;12.40;2.65;;;15.00;58.10;;;;;;5050520;28;20037;-80
2022/09/27 07:11:06;;;;;;;12.48;3.70;;;15.10;58.20;;;;;;5061334;28;20048;-85
2022/09/27 07:13:35;;;;;;;13.43;3.53;;;15.20;58.90;;;;;;5050280;28;20032;-84
2022/09/27 07:16:02;;;;;;;13.52;2.50;;;15.30;58.40;;;;;;5049547;28;20032;-83
2022/09/27 07:18:28;;;;;;;11.77;3.22;;;15.30;58.20;;;;;;5044367;28;20039;-84
2022/09/27 07:21:00;;;;;;;14.52;2.67;;;15.40;58.30;;;;;;5050749;28;20025;-83
2022/09/27 07:23:26;;;;;;;10.45;3.88;;;15.50;58.50;;;;;;5033802;28;20036;-85
2022/09/27 07:25:53;;;;;;;11.60;2.95;;;15.50;58.40;;;;;;5051168;28;20045;-78
2022/09/27 07:28:21;;;;;;;12.93;3.83;;;15.70;58.60;;;;;;5056092;28;20051;-82
2022/09/27 07:30:47;;;;;;;11.93;4.03;;;15.70;58.40;;;;;;5033836;28;20488;-79
2022/09/27 07:33:13;;;;;;;11.35;3.53;;;15.80;58.30;;;;;;5043899;28;20032;-79
2022/09/27 07:35:40;;;;;;;13.45;4.28;;;15.90;58.40;;;;;;5050338;28;20041;-79
2022/09/27 07:38:07;;;;;;;9.80;2.60;;;16.00;58.50;;;;;;5047638;28;20080;-80
2022/09/27 07:40:36;;;;;;;16.15;4.63;;;16.00;58.40;;;;;;5031776;28;20040;-79
2022/09/27 07:43:03;;;;;;;12.35;3.08;;;16.00;58.50;;;;;;5042778;28;20500;-81
2022/09/27 07:45:30;;;;;;;14.10;3.80;;;16.00;58.50;;;;;;5031539;28;20601;-79
2022/09/27 07:48:12;;;;;;;11.93;4.90;;;16.00;58.50;;;;;;5048123;28;20033;-80
2022/09/27 07:51:06;;;;;;;10.70;3.17;;;16.00;58.50;;;;;;5036453;28;20050;-80
2022/09/27 07:53:47;;;;;;;14.80;3.40;;;16.10;58.50;;;;;;5038525;28;20053;-78
2022/09/27 07:56:32;;;;;;;13.95;3.42;;;16.10;58.30;;;;;;5018426;28;20049;-77
2022/09/27 07:59:00;;;;;;;17.13;4.65;;;16.10;58.30;;;;;;5045524;28;20056;-78
2022/09/27 08:01:26;;;;;;;11.98;3.70;;;16.10;58.20;;;;;;5056675;28;20461;-77
2022/09/27 08:03:53;;;;;;;14.70;4.10;;;16.10;58.30;;;;;;5054916;28;20036;-78
2022/09/27 08:06:20;;;;;;;17.67;4.75;;;16.20;58.40;;;;;;5045873;28;20033;-80
2022/09/27 08:08:46;;;;;;;17.90;3.92;;;16.20;58.30;;;;;;5046678;28;20251;-78
2022/09/27 08:11:17;;;;;;;11.57;4.13;;;16.20;58.20;;;;;;5053182;28;20037;-80
2022/09/27 08:13:45;;;;;;;14.15;3.67;;;16.30;58.30;;;;;;5049205;28;20436;-79
2022/09/27 08:16:12;;;;;;;14.05;3.97;;;16.30;58.20;;;;;;5045351;28;20024;-81
2022/09/27 08:19:15;;;;;;;13.80;3.63;;;16.40;58.30;;;;;;5039705;28;20037;-79
2022/09/27 08:21:55;;;;;;;18.83;5.70;;;16.50;58.20;;;;;;5048425;28;20046;-79
2022/09/27 08:24:27;;;;;;;15.85;3.70;;;16.70;58.30;;;;;;5027233;28;20037;-79
2022/09/27 08:27:20;;;;;;;11.32;3.67;;;16.90;58.30;;;;;;5047819;28;20047;-80
2022/09/27 08:29:51;;;;;;;11.55;4.15;;;17.00;58.00;;;;;;5011545;28;20049;-81
2022/09/27 08:32:18;;;;;;;14.57;3.97;;;17.10;58.00;;;;;;5045371;28;20029;-81
2022/09/27 08:34:44;;;;;;;12.80;3.65;;;17.20;57.90;;;;;;5046134;28;20132;-80
2022/09/27 08:37:10;;;;;;;10.00;3.45;;;17.40;58.10;;;;;;5030957;28;20021;-80
2022/09/27 08:39:37;;;;;;;12.25;4.22;;;17.50;57.90;;;;;;5039738;28;20040;-78
2022/09/27 08:42:22;;;;;;;12.68;3.85;;;17.70;58.00;;;;;;5043313;28;20025;-79
2022/09/27 08:45:07;;;;;;;16.75;4.57;;;17.80;57.80;;;;;;5030651;28;20025;-78
2022/09/27 08:47:42;;;;;;;9.65;3.65;;;18.00;57.70;;;;;;5028511;28;20487;-80
2022/09/27 08:50:34;;;;;;;14.13;4.55;;;18.20;57.60;;;;;;5050456;28;20033;-78
2022/09/27 08:53:20;;;;;;;11.07;3.30;;;18.30;57.40;;;;;;5050169;28;20128;-79
2022/09/27 08:55:55;;;;;;;18.42;4.63;;;18.40;57.30;;;;;;5045992;28;20534;-80
2022/09/27 08:58:32;;;;;;;13.32;4.20;;;18.50;57.10;;;;;;5048132;28;20090;-80
2022/09/27 09:01:02;;;;;;;17.92;5.45;;;18.60;57.00;;;;;;5047453;28;20037;-79
2022/09/27 09:03:36;;;;;;;18.35;4.32;;;18.70;57.00;;;;;;5048660;28;20092;-79
2022/09/27 09:06:24;;;;;;;13.57;4.10;;;18.80;56.90;;;;;;5044948;28;20323;-80
2022/09/27 09:09:10;;;;;;;13.80;4.38;;;18.80;56.70;;;;;;5045535;28;20533;-80
2022/09/27 09:14:50;;;;;;;12.27;3.42;;;18.70;56.40;;;;;;5043272;28;20518;-79
2022/09/27 09:17:47;;;;;;;10.05;3.00;;;18.80;56.60;;;;;;5041912;28;20211;-80
2022/09/27 09:20:57;;;;;;;11.98;2.90;;;18.80;56.50;;;;;;5033653;28;20036;-80
2022/09/27 09:23:35;;;;;;;10.85;3.63;;;18.80;56.40;;;;;;5046563;28;20086;-79
2022/09/27 09:26:04;;;;;;;9.93;2.80;;;19.00;56.70;;;;;;5046485;28;20056;-79
2022/09/27 09:28:33;;;;;;;12.65;2.70;;;19.00;56.40;;;;;;5049527;28;20456;-79
2022/09/27 09:31:20;;;;;;;10.02;2.97;;;19.00;56.30;;;;;;5051054;28;20495;-81
2022/09/27 09:33:55;;;;;;;9.98;2.35;;;18.90;56.00;;;;;;5049341;28;20388;-79
2022/09/27 09:36:36;;;;;;;11.35;3.45;;;18.90;56.20;;;;;;5032812;28;20542;-79
2022/09/27 09:39:12;;;;;;;7.30;3.10;;;18.90;56.10;;;;;;5051795;28;20033;-79
2022/09/27 09:42:03;;;;;;;9.88;3.15;;;18.90;56.20;;;;;;5039674;28;20025;-79
2022/09/27 09:44:54;;;;;;;10.48;3.05;;;19.00;56.50;;;;;;5039482;28;20032;-80
2022/09/27 09:47:38;;;;;;;12.20;3.17;;;19.10;56.40;;;;;;5049000;28;20447;-79
2022/09/27 09:50:26;;;;;;;12.68;3.42;;;19.30;56.40;;;;;;5032063;28;20078;-79
2022/09/27 09:53:35;;;;;;;14.75;3.33;;;19.50;56.40;;;;;;5048910;28;20052;-79
2022/09/27 09:56:09;;;;;;;9.23;3.25;;;19.70;56.10;;;;;;5009246;28;20052;-80
2022/09/27 09:58:45;;;;;;;12.10;3.03;;;20.00;56.20;;;;;;5044514;28;20033;-78
2022/09/27 10:01:37;;;;;;;9.80;3.00;;;20.10;55.80;;;;;;5052014;28;20535;-79
2022/09/27 10:04:03;;;;;;;8.40;2.45;;;20.30;55.50;;;;;;5052559;28;20161;-79
2022/09/27 10:06:30;;;;;;;11.65;2.90;;;20.30;55.40;;;;;;5041229;28;20044;-78
2022/09/27 10:09:00;;;;;;;10.55;3.53;;;20.30;55.40;;;;;;5034297;28;20323;-77
2022/09/27 10:11:42;;;;;;;10.18;3.13;;;20.30;55.40;;;;;;5019363;28;20040;-77
2022/09/27 10:14:21;;;;;;;5.70;2.17;;;20.30;55.20;;;;;;5049314;28;20044;-78
2022/09/27 10:16:58;;;;;;;10.27;3.15;;;20.40;55.20;;;;;;5050528;28;20028;-79
2022/09/27 10:19:33;;;;;;;11.13;2.55;;;20.50;55.00;;;;;;5044207;28;20696;-78
2022/09/27 10:22:13;;;;;;;10.15;2.83;;;20.60;55.00;;;;;;5050042;28;20029;-79
2022/09/27 10:25:02;;;;;;;7.78;2.78;;;20.60;54.80;;;;;;5056099;28;20037;-79
2022/09/27 10:27:47;;;;;;;9.18;3.53;;;20.80;54.70;;;;;;5064689;28;20071;-79
2022/09/27 10:30:32;;;;;;;8.20;2.47;;;20.80;55.20;;;;;;5065771;28;20057;-77
2022/09/27 10:33:15;;;;;;;8.88;2.58;;;20.90;54.40;;;;;;5046061;28;20036;-79
2022/09/27 10:35:46;;;;;;;11.15;3.55;;;21.00;54.50;;;;;;5048062;28;20205;-79
2022/09/27 10:38:34;;;;;;;7.88;2.72;;;21.00;54.30;;;;;;5055794;28;20548;-79
2022/09/27 10:41:41;;;;;;;11.93;2.90;;;21.00;54.10;;;;;;5035550;28;21016;-81
2022/09/27 10:44:18;;;;;;;11.43;3.67;;;21.00;54.10;;;;;;5061894;28;20439;-78
2022/09/27 10:46:55;;;;;;;7.60;2.67;;;21.00;54.30;;;;;;5054332;28;20048;-78
2022/09/27 10:49:39;;;;;;;12.43;3.22;;;21.00;54.90;;;;;;5051291;28;20037;-78
2022/09/27 10:52:21;;;;;;;8.77;3.13;;;21.00;54.20;;;;;;5050693;28;20049;-80
2022/09/27 10:54:57;;;;;;;7.97;2.20;;;21.00;54.00;;;;;;5049713;28;20414;-80
2022/09/27 10:57:27;;;;;;;9.00;3.22;;;21.10;54.60;;;;;;5050678;28;20037;-78
2022/09/27 11:00:21;;;;;;;12.85;3.20;;;21.00;53.90;;;;;;5052131;28;20039;-80
2022/09/27 11:03:00;;;;;;;13.15;3.20;;;21.00;53.90;;;;;;5059628;28;20052;-80
2022/09/27 11:05:37;;;;;;;9.90;2.90;;;20.90;53.70;;;;;;5028725;28;20037;-78
2022/09/27 11:08:37;;;;;;;13.15;3.85;;;20.80;53.70;;;;;;5048362;28;20105;-77
2022/09/27 11:11:12;;;;;;;13.07;3.45;;;20.70;53.50;;;;;;5022163;28;20370;-77
2022/09/27 11:13:40;;;;;;;9.27;3.10;;;20.50;53.60;;;;;;5045406;28;20031;-80
2022/09/27 11:16:23;;;;;;;17.08;4.00;;;20.40;53.60;;;;;;5050866;28;20025;-81
2022/09/27 11:18:56;;;;;;;12.38;2.85;;;20.30;53.60;;;;;;5047187;28;20017;-79
2022/09/27 11:21:40;;;;;;;14.45;4.15;;;20.20;53.70;;;;;;5050097;28;20041;-80
2022/09/27 11:24:15;;;;;;;13.10;3.92;;;20.10;53.60;;;;;;5048253;28;20028;-81
2022/09/27 11:26:54;;;;;;;11.27;3.30;;;20.10;53.70;;;;;;5050014;28;20040;-77
2022/09/27 11:29:32;;;;;;;12.38;4.10;;;20.20;53.90;;;;;;5032686;28;20045;-82
2022/09/27 11:32:53;;;;;;;11.38;3.60;;;20.30;53.70;;;;;;5042207;28;20037;-81
2022/09/27 11:35:55;;;;;;;11.65;3.38;;;20.50;54.20;;;;;;5045582;28;20025;-80
2022/09/27 11:39:01;;;;;;;11.02;3.35;;;20.60;53.40;;;;;;5033600;28;20051;-78
2022/09/27 11:41:35;;;;;;;11.65;3.72;;;20.80;53.50;;;;;;5047281;28;20041;-79
2022/09/27 11:44:31;;;;;;;10.77;3.30;;;21.00;53.50;;;;;;5043648;28;20355;-80
2022/09/27 11:47:11;;;;;;;13.63;4.30;;;21.10;53.40;;;;;;5043965;28;20281;-79
2022/09/27 11:49:52;;;;;;;9.38;3.38;;;21.20;53.30;;;;;;5042403;28;20025;-80
2022/09/27 11:52:51;;;;;;;10.50;3.35;;;21.20;53.10;;;;;;5046138;28;20021;-81
2022/09/27 11:55:19;;;;;;;13.13;3.25;;;21.30;53.00;;;;;;5047054;28;20033;-77
2022/09/27 11:57:56;;;;;;;12.27;3.22;;;21.30;53.10;;;;;;5051137;28;20056;-78
2022/09/27 12:00:31;;;;;;;7.20;2.08;;;21.40;53.10;;;;;;5047348;28;20524;-80
2022/09/27 12:03:24;;;;;;;12.73;3.95;;;21.50;53.10;;;;;;5045845;28;20032;-79
2022/09/27 12:06:02;;;;;;;10.73;3.38;;;21.70;52.80;;;;;;5049114;28;20048;-77
2022/09/27 12:08:47;;;;;;;8.50;2.20;;;21.90;52.60;;;;;;5045174;28;20025;-76
2022/09/27 12:11:32;;;;;;;12.13;3.80;;;22.10;52.40;;;;;;5048626;28;20024;-77
2022/09/27 12:14:09;;;;;;;7.25;2.13;;;22.30;52.40;;;;;;5047220;28;20037;-78
2022/09/27 12:16:37;;;;;;;7.32;2.78;;;22.40;52.20;;;;;;5046244;28;20390;-79
2022/09/27 12:19:18;;;;;;;11.00;2.72;;;22.60;52.30;;;;;;5045812;28;20455;-79
2022/09/27 12:22:17;;;;;;;8.35;2.50;;;22.70;51.90;;;;;;5048666;28;20637;-79
2022/09/27 12:24:45;;;;;;;7.55;2.75;;;22.90;52.00;;;;;;5044791;28;20303;-79
2022/09/27 12:27:36;;;;;;;10.68;3.00;;;23.00;51.90;;;;;;5044986;28;20037;-80
2022/09/27 12:30:05;;;;;;;9.30;3.33;;;23.00;51.60;;;;;;5044683;28;20021;-81
2022/09/27 12:32:43;;;;;;;8.23;2.00;;;23.00;51.40;;;;;;5029362;28;20039;-79
2022/09/27 12:35:28;;;;;;;7.85;3.03;;;23.00;51.00;;;;;;5043461;28;20399;-79
2022/09/27 12:38:10;;;;;;;10.73;3.22;;;23.00;50.80;;;;;;5046726;28;20067;-77
2022/09/27 12:40:41;;;;;;;5.38;2.47;;;23.10;50.70;;;;;;5044407;28;20041;-78
2022/09/27 12:43:24;;;;;;;7.53;2.45;;;23.10;50.70;;;;;;5033229;28;20155;-78
2022/09/27 12:45:56;;;;;;;8.52;3.10;;;23.10;50.60;;;;;;5047273;28;20051;-77
2022/09/27 12:48:44;;;;;;;10.25;2.75;;;23.20;50.70;;;;;;5044925;28;20040;-78
2022/09/27 12:51:13;;;;;;;8.30;2.20;;;23.30;51.00;;;;;;5046158;28;20041;-78
2022/09/27 12:54:05;;;;;;;8.30;2.88;;;23.40;50.60;;;;;;5047271;28;20045;-77
2022/09/27 12:56:56;;;;;;;10.23;2.80;;;23.40;50.40;;;;;;5047076;28;20356;-77
2022/09/27 12:59:51;;;;;;;7.80;2.30;;;23.40;50.30;;;;;;5047332;28;20033;-78
2022/09/27 13:02:34;;;;;;;7.32;2.00;;;23.50;50.30;;;;;;5052962;28;20266;-77
2022/09/27 13:05:31;;;;;;;8.27;2.78;;;23.50;50.40;;;;;;5048945;28;20056;-79
2022/09/27 13:08:39;;;;;;;7.95;2.53;;;23.40;50.10;;;;;;5048244;28;20435;-78
2022/09/27 13:11:07;;;;;;;6.72;2.40;;;23.30;50.20;;;;;;5034005;28;20106;-77
2022/09/27 13:13:36;;;;;;;9.23;2.47;;;23.20;50.30;;;;;;5053109;28;20029;-78
2022/09/27 13:16:06;;;;;;;6.90;2.67;;;23.10;50.20;;;;;;5039952;28;20236;-78
2022/09/27 13:18:52;;;;;;;9.18;2.80;;;23.10;50.30;;;;;;5051921;28;20115;-77
2022/09/27 13:21:50;;;;;;;7.65;2.80;;;23.00;50.10;;;;;;5051846;28;20039;-78
2022/09/27 13:24:46;;;;;;;12.68;3.67;;;22.80;49.80;;;;;;5061948;28;20053;-79
2022/09/27 13:27:41;;;;;;;11.02;2.63;;;22.70;50.20;;;;;;5051786;28;20037;-79
2022/09/27 13:30:18;;;;;;;10.90;2.72;;;22.50;50.00;;;;;;5052730;28;20484;-78
2022/09/27 13:33:33;;;;;;;10.38;2.78;;;22.40;50.00;;;;;;5046705;28;20101;-78
2022/09/27 13:36:06;;;;;;;8.63;2.70;;;22.20;49.70;;;;;;5041929;28;20048;-79
2022/09/27 13:38:35;;;;;;;;;;;22.10;49.90;;;;;;5052309;28;20064;-80
2022/09/27 13:41:18;;;;;;;6.32;2.40;;;22.00;50.00;;;;;;5051280;28;19908;-80
2022/09/27 13:44:12;;;;;;;5.65;2.08;;;21.90;50.00;;;;;;5045621;28;20029;-79